Time;durP1;ratioP1;P1;durP2;ratioP2;P2;SDS_P1;SDS_P2;PMS_P1;PMS_P2;Temp;Humidity;BMP_temperature;BMP_pressure;BME280_temperature;BME280_humidity;BME280_pressure;Samples;Min_cycle;Max_cycle;Signal;HPM_P1;HPM_P2
2023/05/25 00:01:58;;;;;;;14.80;6.85;;;;;;;;;;5022128;28;20421;-55
2023/05/25 00:04:29;;;;;;;19.73;7.97;;;;;;;;;;5023599;28;21358;-56
2023/05/25 00:06:56;;;;;;;15.38;7.22;;;;;;;;;;5024426;28;20483;-56
2023/05/25 00:09:23;;;;;;;18.65;8.10;;;;;;;;;;5023715;28;20415;-57
2023/05/25 00:11:51;;;;;;;22.20;9.13;;;;;;;;;;5022580;28;20473;-57
2023/05/25 00:14:18;;;;;;;19.65;8.18;;;;;;;;;;5023480;28;20430;-55
2023/05/25 00:16:47;;;;;;;15.73;7.83;;;;;;;;;;5021465;28;20463;-57
2023/05/25 00:19:14;;;;;;;17.88;8.27;;;;;;;;;;5020764;28;20424;-55
2023/05/25 00:21:43;;;;;;;14.02;7.30;;;;;;;;;;5023179;28;20419;-56
2023/05/25 00:24:10;;;;;;;16.17;8.38;;;;;;;;;;5022412;28;20800;-58
2023/05/25 00:26:37;;;;;;;22.08;9.00;;;;;;;;;;5020858;28;20417;-56
2023/05/25 00:29:04;;;;;;;17.90;8.50;;;;;;;;;;5023598;28;20796;-56
2023/05/25 00:31:34;;;;;;;19.52;8.80;;;;;;;;;;5023481;28;20448;-55
2023/05/25 00:34:01;;;;;;;20.10;9.60;;;;;;;;;;5022317;28;20450;-56
2023/05/25 00:36:28;;;;;;;22.08;9.93;;;;;;;;;;5019595;28;20424;-56
2023/05/25 00:38:56;;;;;;;20.50;10.25;;;;;;;;;;5020549;28;20451;-56
2023/05/25 00:41:24;;;;;;;21.23;10.63;;;;;;;;;;5022723;28;21009;-56
2023/05/25 00:43:51;;;;;;;24.80;10.43;;;;;;;;;;5026216;28;20864;-57
2023/05/25 00:46:19;;;;;;;18.25;10.38;;;;;;;;;;5021312;28;20408;-57
2023/05/25 00:48:46;;;;;;;17.95;9.65;;;;;;;;;;5020531;28;20459;-55
2023/05/25 00:51:16;;;;;;;18.70;9.70;;;;;;;;;;5023373;28;20427;-55
2023/05/25 00:53:43;;;;;;;18.97;9.77;;;;;;;;;;5020336;28;20452;-55
2023/05/25 00:56:15;;;;;;;21.60;10.30;;;;;;;;;;5022214;28;20434;-57
2023/05/25 00:58:43;;;;;;;23.92;10.85;;;;;;;;;;5020298;28;20420;-58
2023/05/25 01:01:11;;;;;;;26.53;11.23;;;;;;;;;;5022286;28;20573;-54
2023/05/25 01:03:40;;;;;;;23.85;10.52;;;;;;;;;;5022323;28;20415;-54
2023/05/25 01:06:09;;;;;;;20.13;10.73;;;;;;;;;;5018592;28;20424;-57
2023/05/25 01:08:37;;;;;;;22.40;10.73;;;;;;;;;;5021846;28;20476;-56
2023/05/25 01:11:06;;;;;;;21.98;10.95;;;;;;;;;;5018505;28;20486;-55
2023/05/25 01:13:36;;;;;;;24.80;12.03;;;;;;;;;;5021732;28;20481;-58
2023/05/25 01:16:04;;;;;;;22.85;11.10;;;;;;;;;;5022859;28;20433;-53
2023/05/25 01:18:32;;;;;;;24.27;12.32;;;;;;;;;;5023627;28;20419;-55
2023/05/25 01:21:11;;;;;;;21.52;11.73;;;;;;;;;;5019952;28;20463;-57
2023/05/25 01:23:41;;;;;;;25.08;11.23;;;;;;;;;;5020528;28;20467;-57
2023/05/25 01:26:13;;;;;;;21.70;11.05;;;;;;;;;;5021621;28;20753;-57
2023/05/25 01:28:45;;;;;;;19.23;11.38;;;;;;;;;;5024326;28;20419;-55
2023/05/25 01:31:12;;;;;;;27.58;11.55;;;;;;;;;;5023918;28;20423;-56
2023/05/25 01:33:39;;;;;;;26.40;12.05;;;;;;;;;;5018817;28;20480;-57
2023/05/25 01:36:08;;;;;;;26.38;11.68;;;;;;;;;;5017704;28;20426;-56
2023/05/25 01:38:35;;;;;;;21.40;11.35;;;;;;;;;;5020271;28;20419;-57
2023/05/25 01:41:02;;;;;;;29.40;12.70;;;;;;;;;;5021546;28;20466;-58
2023/05/25 01:43:29;;;;;;;22.65;11.80;;;;;;;;;;5021684;28;20823;-58
2023/05/25 01:45:58;;;;;;;28.40;12.38;;;;;;;;;;5019389;28;20944;-58
2023/05/25 01:48:30;;;;;;;25.30;11.23;;;;;;;;;;5023799;28;20490;-57
2023/05/25 01:50:59;;;;;;;26.48;12.75;;;;;;;;;;5015923;28;20417;-57
2023/05/25 01:53:30;;;;;;;23.90;12.33;;;;;;;;;;5020253;28;21082;-56
2023/05/25 01:55:59;;;;;;;25.95;13.02;;;;;;;;;;5017643;28;20504;-58
2023/05/25 01:58:27;;;;;;;26.20;12.50;;;;;;;;;;5023790;28;20420;-57
2023/05/25 02:00:56;;;;;;;24.65;12.68;;;;;;;;;;5021998;28;20418;-59
2023/05/25 02:03:23;;;;;;;25.98;13.00;;;;;;;;;;5020989;28;20427;-56
2023/05/25 02:05:50;;;;;;;25.00;13.15;;;;;;;;;;5019016;28;20419;-57
2023/05/25 02:08:19;;;;;;;27.63;12.70;;;;;;;;;;5020421;28;20416;-56
2023/05/25 02:10:47;;;;;;;26.00;12.30;;;;;;;;;;5019258;28;20425;-57
2023/05/25 02:13:14;;;;;;;30.80;13.70;;;;;;;;;;5021340;28;20489;-57
2023/05/25 02:15:41;;;;;;;26.88;13.23;;;;;;;;;;5020089;28;20501;-57
2023/05/25 02:18:08;;;;;;;24.92;13.10;;;;;;;;;;5021870;28;20472;-58
2023/05/25 02:20:36;;;;;;;29.23;14.27;;;;;;;;;;5020970;28;20420;-57
2023/05/25 02:23:03;;;;;;;26.90;13.73;;;;;;;;;;5022041;28;20477;-57
2023/05/25 02:25:30;;;;;;;28.38;14.48;;;;;;;;;;5022099;28;20423;-57
2023/05/25 02:27:59;;;;;;;25.02;13.88;;;;;;;;;;5021070;28;20451;-57
2023/05/25 02:30:26;;;;;;;27.30;14.20;;;;;;;;;;5005737;28;20412;-58
2023/05/25 02:32:53;;;;;;;26.73;13.65;;;;;;;;;;5020005;28;20487;-56
2023/05/25 02:35:20;;;;;;;26.58;13.35;;;;;;;;;;5018512;28;20516;-57
2023/05/25 02:37:47;;;;;;;25.85;12.77;;;;;;;;;;5020289;28;20484;-57
2023/05/25 02:40:14;;;;;;;29.17;12.60;;;;;;;;;;5024193;28;20422;-57
2023/05/25 02:42:41;;;;;;;23.40;12.73;;;;;;;;;;5019834;28;20412;-57
2023/05/25 02:45:10;;;;;;;26.77;12.68;;;;;;;;;;5022950;28;20417;-56
2023/05/25 02:47:38;;;;;;;23.58;11.73;;;;;;;;;;5019698;28;20409;-56
2023/05/25 02:50:05;;;;;;;24.15;12.90;;;;;;;;;;5023255;28;20487;-56
2023/05/25 02:52:32;;;;;;;25.88;13.07;;;;;;;;;;5024949;28;20469;-57
2023/05/25 02:54:59;;;;;;;25.63;12.95;;;;;;;;;;5023575;28;20428;-57
2023/05/25 02:57:27;;;;;;;24.08;13.30;;;;;;;;;;5023042;28;20464;-56
2023/05/25 02:59:54;;;;;;;24.30;13.15;;;;;;;;;;5024351;28;20902;-59
2023/05/25 03:02:24;;;;;;;24.15;12.55;;;;;;;;;;5024529;28;20411;-56
2023/05/25 03:04:52;;;;;;;22.15;12.32;;;;;;;;;;5018306;28;20439;-57
2023/05/25 03:07:19;;;;;;;24.83;13.13;;;;;;;;;;5021323;28;20917;-56
2023/05/25 03:09:46;;;;;;;25.58;14.25;;;;;;;;;;5024712;28;20477;-57
2023/05/25 03:12:13;;;;;;;26.00;13.43;;;;;;;;;;5021554;28;20430;-55
2023/05/25 03:14:40;;;;;;;28.95;13.45;;;;;;;;;;5026729;28;20418;-57
2023/05/25 03:17:07;;;;;;;26.42;12.90;;;;;;;;;;5024233;28;20427;-56
2023/05/25 03:19:36;;;;;;;23.73;13.40;;;;;;;;;;5023971;28;20962;-56
2023/05/25 03:22:03;;;;;;;23.53;13.13;;;;;;;;;;5024542;28;20411;-56
2023/05/25 03:24:30;;;;;;;27.23;13.25;;;;;;;;;;5023393;28;20468;-57
2023/05/25 03:26:57;;;;;;;21.45;13.18;;;;;;;;;;5022095;28;20421;-55
2023/05/25 03:29:25;;;;;;;29.48;14.23;;;;;;;;;;5021922;28;20553;-57
2023/05/25 03:31:52;;;;;;;27.75;14.00;;;;;;;;;;5021846;28;20452;-58
2023/05/25 03:34:19;;;;;;;23.48;13.30;;;;;;;;;;5023333;28;20416;-56
2023/05/25 03:36:48;;;;;;;23.50;14.13;;;;;;;;;;5022094;28;20488;-58
2023/05/25 03:39:14;;;;;;;25.52;14.88;;;;;;;;;;5021507;28;20421;-58
2023/05/25 03:41:43;;;;;;;27.95;15.30;;;;;;;;;;5022763;28;20418;-55
2023/05/25 03:44:10;;;;;;;29.08;14.70;;;;;;;;;;5024302;28;20846;-57
2023/05/25 03:46:37;;;;;;;27.87;14.90;;;;;;;;;;5022043;28;20557;-57
2023/05/25 03:49:04;;;;;;;29.00;15.65;;;;;;;;;;5021471;28;20470;-56
2023/05/25 03:51:31;;;;;;;24.13;13.90;;;;;;;;;;5017974;28;20440;-56
2023/05/25 03:53:59;;;;;;;26.90;14.27;;;;;;;;;;5022560;28;20421;-56
2023/05/25 03:56:26;;;;;;;24.85;15.23;;;;;;;;;;5023282;28;21003;-57
2023/05/25 03:58:53;;;;;;;27.25;14.50;;;;;;;;;;5022924;28;20474;-57
2023/05/25 04:01:21;;;;;;;27.42;14.45;;;;;;;;;;5021434;28;20424;-57
2023/05/25 04:03:47;;;;;;;25.33;14.70;;;;;;;;;;5023574;28;20422;-56
2023/05/25 04:06:18;;;;;;;25.77;14.73;;;;;;;;;;5020041;28;20412;-56
2023/05/25 04:08:44;;;;;;;30.20;15.63;;;;;;;;;;5018434;28;20455;-56
2023/05/25 04:11:13;;;;;;;28.70;15.95;;;;;;;;;;5022757;28;20421;-56
2023/05/25 04:13:40;;;;;;;29.15;16.38;;;;;;;;;;5026557;28;20842;-56
2023/05/25 04:16:07;;;;;;;28.67;17.67;;;;;;;;;;5022266;28;20428;-56
2023/05/25 04:18:34;;;;;;;27.05;16.08;;;;;;;;;;5020956;28;20417;-57
2023/05/25 04:21:01;;;;;;;30.42;16.42;;;;;;;;;;5022845;28;20811;-56
2023/05/25 04:23:28;;;;;;;27.02;15.27;;;;;;;;;;5023053;28;20415;-57
2023/05/25 04:25:55;;;;;;;26.30;15.65;;;;;;;;;;5022454;28;20408;-56
2023/05/25 04:28:23;;;;;;;26.00;15.07;;;;;;;;;;5023906;28;20471;-55
2023/05/25 04:30:55;;;;;;;24.13;14.85;;;;;;;;;;5023694;28;20415;-54
2023/05/25 04:33:23;;;;;;;25.88;14.40;;;;;;;;;;5022068;28;20423;-57
2023/05/25 04:35:50;;;;;;;25.25;14.65;;;;;;;;;;5020903;28;20431;-57
2023/05/25 04:38:17;;;;;;;22.60;14.65;;;;;;;;;;5022948;28;20420;-57
2023/05/25 04:40:45;;;;;;;26.85;14.80;;;;;;;;;;5020522;28;20833;-57
2023/05/25 04:43:12;;;;;;;26.27;14.85;;;;;;;;;;5017597;28;20413;-56
2023/05/25 04:45:42;;;;;;;29.00;14.82;;;;;;;;;;5024059;28;20760;-56
2023/05/25 04:48:09;;;;;;;24.10;13.60;;;;;;;;;;5017338;28;20789;-55
2023/05/25 04:50:38;;;;;;;26.13;13.77;;;;;;;;;;5021067;28;20417;-54
2023/05/25 04:53:06;;;;;;;23.77;13.43;;;;;;;;;;5023248;28;20511;-57
2023/05/25 04:55:33;;;;;;;43.97;35.13;;;;;;;;;;5021151;28;20425;-58
2023/05/25 04:58:00;;;;;;;29.63;18.65;;;;;;;;;;5022849;28;20419;-56
2023/05/25 05:00:27;;;;;;;26.80;15.00;;;;;;;;;;5020535;28;21027;-57
2023/05/25 05:02:56;;;;;;;22.77;14.20;;;;;;;;;;5020538;28;20421;-57
2023/05/25 05:05:23;;;;;;;26.98;15.05;;;;;;;;;;5016494;28;20421;-56
2023/05/25 05:07:50;;;;;;;30.20;16.42;;;;;;;;;;5023539;28;20416;-57
2023/05/25 05:10:17;;;;;;;28.23;16.13;;;;;;;;;;5022217;28;20419;-57
2023/05/25 05:12:44;;;;;;;27.30;16.27;;;;;;;;;;5020892;28;20526;-56
2023/05/25 05:15:11;;;;;;;29.25;15.65;;;;;;;;;;5020005;28;20420;-56
2023/05/25 05:17:38;;;;;;;27.63;14.85;;;;;;;;;;5021887;28;20476;-57
2023/05/25 05:20:08;;;;;;;23.48;13.57;;;;;;;;;;5024249;28;20418;-56
2023/05/25 05:22:35;;;;;;;28.30;15.18;;;;;;;;;;5016460;28;20767;-57
2023/05/25 05:25:02;;;;;;;23.75;15.55;;;;;;;;;;5020746;28;20425;-58
2023/05/25 05:27:29;;;;;;;28.10;15.27;;;;;;;;;;5022180;28;20483;-56
2023/05/25 05:29:56;;;;;;;22.33;13.80;;;;;;;;;;5021068;28;20424;-56
2023/05/25 05:32:23;;;;;;;26.30;15.00;;;;;;;;;;5021230;28;20427;-57
2023/05/25 05:34:50;;;;;;;23.77;14.88;;;;;;;;;;5015940;28;20469;-57
2023/05/25 05:37:18;;;;;;;25.30;14.73;;;;;;;;;;5018005;28;20484;-56
2023/05/25 05:39:45;;;;;;;20.70;13.83;;;;;;;;;;5015929;28;20903;-58
2023/05/25 05:42:12;;;;;;;20.50;12.93;;;;;;;;;;5018124;28;20419;-56
2023/05/25 05:44:39;;;;;;;25.15;13.38;;;;;;;;;;5022160;28;20407;-58
2023/05/25 05:47:06;;;;;;;23.85;13.32;;;;;;;;;;5020448;28;20420;-56
2023/05/25 05:49:34;;;;;;;23.85;12.60;;;;;;;;;;5020817;28;20475;-55
2023/05/25 05:52:01;;;;;;;23.23;12.50;;;;;;;;;;5022074;28;20458;-56
2023/05/25 05:54:29;;;;;;;22.48;13.43;;;;;;;;;;5021048;28;20417;-56
2023/05/25 05:56:56;;;;;;;23.47;13.10;;;;;;;;;;5021664;28;20432;-56
2023/05/25 05:59:23;;;;;;;21.75;12.63;;;;;;;;;;5023501;28;20428;-57
2023/05/25 06:01:50;;;;;;;25.52;12.52;;;;;;;;;;5019555;28;20423;-58
2023/05/25 06:04:19;;;;;;;20.80;12.57;;;;;;;;;;5016376;28;20417;-56
2023/05/25 06:06:46;;;;;;;22.33;12.68;;;;;;;;;;5020025;28;20815;-56
2023/05/25 06:09:13;;;;;;;22.13;12.88;;;;;;;;;;5021212;28;20429;-56
2023/05/25 06:11:42;;;;;;;25.52;13.15;;;;;;;;;;5020396;28;20907;-56
2023/05/25 06:14:10;;;;;;;23.67;12.75;;;;;;;;;;5021826;28;20419;-58
2023/05/25 06:16:37;;;;;;;27.70;13.73;;;;;;;;;;5020139;28;20936;-56
2023/05/25 06:19:04;;;;;;;26.97;14.07;;;;;;;;;;5021208;28;20893;-56
2023/05/25 06:21:31;;;;;;;22.63;12.50;;;;;;;;;;5020186;28;20412;-56
2023/05/25 06:23:58;;;;;;;25.00;13.43;;;;;;;;;;5025949;28;20765;-57
2023/05/25 06:26:25;;;;;;;20.20;11.33;;;;;;;;;;5023153;28;20492;-57
2023/05/25 06:28:54;;;;;;;25.10;13.05;;;;;;;;;;5026231;28;20810;-55
2023/05/25 06:31:21;;;;;;;23.00;11.73;;;;;;;;;;5025816;28;20855;-58
2023/05/25 06:33:48;;;;;;;23.83;13.18;;;;;;;;;;5023739;28;20416;-58
2023/05/25 06:36:15;;;;;;;24.13;12.30;;;;;;;;;;5021918;28;20482;-57
2023/05/25 06:38:42;;;;;;;19.48;11.98;;;;;;;;;;5025272;28;20415;-57
2023/05/25 06:41:11;;;;;;;23.25;12.43;;;;;;;;;;5024684;28;21254;-58
2023/05/25 06:43:38;;;;;;;23.98;13.15;;;;;;;;;;5023101;28;20881;-58
2023/05/25 06:46:08;;;;;;;20.65;12.70;;;;;;;;;;5028255;28;20424;-58
2023/05/25 06:48:36;;;;;;;25.15;12.68;;;;;;;;;;5025812;28;20925;-58
2023/05/25 06:51:03;;;;;;;23.35;11.85;;;;;;;;;;5024518;28;20418;-58
2023/05/25 06:53:30;;;;;;;21.20;12.38;;;;;;;;;;5025461;28;20427;-59
2023/05/25 06:55:57;;;;;;;20.00;11.82;;;;;;;;;;5019120;28;20412;-59
2023/05/25 06:58:24;;;;;;;19.50;11.90;;;;;;;;;;5023618;28;20412;-58
2023/05/25 07:00:51;;;;;;;23.02;12.65;;;;;;;;;;5023033;28;20494;-57
2023/05/25 07:03:20;;;;;;;20.67;11.18;;;;;;;;;;5025232;28;20903;-58
2023/05/25 07:05:47;;;;;;;17.57;11.03;;;;;;;;;;5023327;28;20476;-57
2023/05/25 07:08:14;;;;;;;17.45;10.93;;;;;;;;;;5022840;28;20551;-58
2023/05/25 07:10:41;;;;;;;21.25;12.73;;;;;;;;;;5022126;28;20419;-57
2023/05/25 07:13:08;;;;;;;21.90;10.65;;;;;;;;;;5022800;28;20428;-57
2023/05/25 07:15:35;;;;;;;19.00;9.88;;;;;;;;;;5024052;28;21269;-58
2023/05/25 07:18:02;;;;;;;19.40;10.68;;;;;;;;;;5024070;28;20427;-58
2023/05/25 07:20:32;;;;;;;18.00;9.75;;;;;;;;;;5022997;28;20416;-58
2023/05/25 07:22:59;;;;;;;19.52;11.50;;;;;;;;;;5022246;28;20478;-58
2023/05/25 07:25:26;;;;;;;18.70;10.73;;;;;;;;;;5025965;28;20826;-58
2023/05/25 07:27:54;;;;;;;22.30;11.20;;;;;;;;;;5024026;28;20411;-59
2023/05/25 07:30:21;;;;;;;21.63;12.00;;;;;;;;;;5022400;28;20435;-59
2023/05/25 07:32:48;;;;;;;22.10;14.68;;;;;;;;;;5023263;28;20457;-59
2023/05/25 07:35:15;;;;;;;26.58;15.27;;;;;;;;;;5020977;28;20475;-58
2023/05/25 07:37:44;;;;;;;22.75;14.55;;;;;;;;;;5023536;28;20431;-57
2023/05/25 07:40:11;;;;;;;22.48;13.85;;;;;;;;;;5024298;28;20418;-59
2023/05/25 07:42:39;;;;;;;23.40;11.30;;;;;;;;;;5018764;28;20516;-59
2023/05/25 07:45:06;;;;;;;26.33;13.48;;;;;;;;;;5024410;28;20527;-58
2023/05/25 07:47:33;;;;;;;22.08;11.93;;;;;;;;;;5024331;28;20456;-56
2023/05/25 07:50:00;;;;;;;19.38;9.93;;;;;;;;;;5020295;28;20425;-58
2023/05/25 07:52:27;;;;;;;21.73;13.27;;;;;;;;;;5024012;28;20465;-58
2023/05/25 07:54:56;;;;;;;31.70;19.05;;;;;;;;;;5020164;28;20465;-56
2023/05/25 07:57:24;;;;;;;23.63;16.13;;;;;;;;;;5023265;28;20423;-58
2023/05/25 07:59:51;;;;;;;25.83;13.95;;;;;;;;;;5027471;28;20426;-57
2023/05/25 08:02:18;;;;;;;22.02;13.15;;;;;;;;;;5022126;28;20427;-58
2023/05/25 08:04:45;;;;;;;21.60;12.87;;;;;;;;;;5023715;28;20843;-57
2023/05/25 08:07:12;;;;;;;23.45;13.90;;;;;;;;;;5020725;28;20411;-58
2023/05/25 08:09:39;;;;;;;21.90;12.87;;;;;;;;;;5016770;28;20494;-58
2023/05/25 08:12:07;;;;;;;22.08;12.85;;;;;;;;;;5014548;28;20428;-60
2023/05/25 08:14:35;;;;;;;21.67;12.38;;;;;;;;;;5017582;28;20481;-59
2023/05/25 08:17:03;;;;;;;16.60;10.13;;;;;;;;;;5014897;28;20481;-57
2023/05/25 08:19:31;;;;;;;17.55;9.43;;;;;;;;;;5016806;28;21014;-61
2023/05/25 08:21:58;;;;;;;15.57;9.10;;;;;;;;;;5018842;28;20460;-61
2023/05/25 08:24:25;;;;;;;18.20;10.25;;;;;;;;;;5020119;28;20893;-61
2023/05/25 08:26:52;;;;;;;19.63;11.23;;;;;;;;;;5019070;28;20801;-59
2023/05/25 08:29:21;;;;;;;17.98;7.95;;;;;;;;;;5021096;28;20481;-60
2023/05/25 08:31:48;;;;;;;16.48;8.20;;;;;;;;;;5020273;28;20424;-61
2023/05/25 08:34:15;;;;;;;16.38;8.45;;;;;;;;;;5019486;28;20455;-61
2023/05/25 08:36:43;;;;;;;11.65;7.65;;;;;;;;;;5018651;28;20419;-61
2023/05/25 08:39:10;;;;;;;15.55;8.57;;;;;;;;;;5018656;28;20511;-60
2023/05/25 08:41:41;;;;;;;11.18;7.25;;;;;;;;;;5019607;28;20419;-60
2023/05/25 08:44:08;;;;;;;13.75;7.30;;;;;;;;;;5021495;28;20415;-59
2023/05/25 08:46:37;;;;;;;12.40;6.82;;;;;;;;;;5019804;28;20434;-59
2023/05/25 08:49:05;;;;;;;14.47;8.30;;;;;;;;;;5022115;28;20509;-59
2023/05/25 08:51:36;;;;;;;16.55;7.13;;;;;;;;;;5015148;28;20470;-60
2023/05/25 08:54:06;;;;;;;10.80;6.85;;;;;;;;;;5018572;28;20427;-60
2023/05/25 08:56:35;;;;;;;15.30;6.90;;;;;;;;;;5023799;28;20893;-60
2023/05/25 08:59:03;;;;;;;17.10;7.43;;;;;;;;;;5019794;28;20475;-58
2023/05/25 09:01:32;;;;;;;15.52;7.15;;;;;;;;;;5021497;28;20407;-58
2023/05/25 09:04:01;;;;;;;12.63;7.00;;;;;;;;;;5020812;28;20840;-56
2023/05/25 09:06:29;;;;;;;12.60;7.15;;;;;;;;;;5019382;28;20429;-57
2023/05/25 09:08:56;;;;;;;14.05;6.78;;;;;;;;;;5020513;28;20421;-56
2023/05/25 09:11:23;;;;;;;12.52;7.55;;;;;;;;;;5021398;28;20485;-56
2023/05/25 09:13:50;;;;;;;15.40;7.57;;;;;;;;;;5020785;28;20450;-59
2023/05/25 09:16:18;;;;;;;15.40;8.52;;;;;;;;;;5019528;28;20526;-63
2023/05/25 09:18:45;;;;;;;19.02;8.48;;;;;;;;;;5021328;28;20485;-58
2023/05/25 09:21:13;;;;;;;16.30;7.78;;;;;;;;;;5021423;28;20428;-57
2023/05/25 09:23:41;;;;;;;13.57;7.90;;;;;;;;;;5019534;28;20686;-59
2023/05/25 09:26:08;;;;;;;14.77;8.65;;;;;;;;;;5020146;28;20413;-57
2023/05/25 09:28:35;;;;;;;14.07;7.87;;;;;;;;;;5021760;28;20407;-58
2023/05/25 09:31:02;;;;;;;12.93;7.80;;;;;;;;;;5019906;28;20417;-58
2023/05/25 09:33:30;;;;;;;13.63;7.82;;;;;;;;;;5017590;28;20424;-59
2023/05/25 09:35:57;;;;;;;13.00;7.72;;;;;;;;;;5022948;28;20501;-57
2023/05/25 09:38:25;;;;;;;12.27;6.67;;;;;;;;;;5022602;28;20481;-55
2023/05/25 09:40:52;;;;;;;14.80;8.30;;;;;;;;;;5014953;28;20432;-56
2023/05/25 09:43:19;;;;;;;12.57;7.20;;;;;;;;;;5013368;28;20838;-55
2023/05/25 09:45:46;;;;;;;17.05;7.50;;;;;;;;;;5021438;28;20418;-57
2023/05/25 09:48:14;;;;;;;11.98;7.07;;;;;;;;;;5020117;28;20825;-55
2023/05/25 09:50:41;;;;;;;12.07;7.43;;;;;;;;;;5018408;28;20885;-59
2023/05/25 09:53:08;;;;;;;12.52;7.00;;;;;;;;;;5015610;28;20453;-59
2023/05/25 09:55:37;;;;;;;13.00;6.72;;;;;;;;;;5024889;28;20453;-58
2023/05/25 09:58:06;;;;;;;11.15;7.35;;;;;;;;;;5022909;28;20432;-58
2023/05/25 10:00:33;;;;;;;10.30;5.65;;;;;;;;;;5024610;28;20464;-59
2023/05/25 10:03:00;;;;;;;11.90;6.88;;;;;;;;;;5025589;28;20419;-60
2023/05/25 10:05:27;;;;;;;10.88;6.43;;;;;;;;;;5022373;28;20471;-58
2023/05/25 10:07:55;;;;;;;10.52;6.55;;;;;;;;;;5026447;28;20472;-58
2023/05/25 10:10:22;;;;;;;12.70;6.43;;;;;;;;;;5021451;28;20464;-58
2023/05/25 10:12:52;;;;;;;13.32;7.70;;;;;;;;;;5023622;28;20426;-56
2023/05/25 10:15:19;;;;;;;12.55;7.03;;;;;;;;;;5019178;28;20416;-58
2023/05/25 10:17:51;;;;;;;13.27;7.10;;;;;;;;;;5023713;28;21123;-56
2023/05/25 10:20:18;;;;;;;13.95;6.90;;;;;;;;;;5020684;28;20415;-56
2023/05/25 10:22:48;;;;;;;16.10;7.07;;;;;;;;;;5026254;28;20423;-58
2023/05/25 10:25:18;;;;;;;11.35;7.22;;;;;;;;;;5022965;28;20413;-58
2023/05/25 10:27:47;;;;;;;9.98;6.43;;;;;;;;;;5027148;28;20428;-58
2023/05/25 10:30:16;;;;;;;11.25;7.15;;;;;;;;;;5025192;28;20424;-56
2023/05/25 10:32:44;;;;;;;12.75;7.80;;;;;;;;;;5027493;28;20426;-58
2023/05/25 10:35:12;;;;;;;13.88;7.55;;;;;;;;;;5021598;28;20470;-59
2023/05/25 10:37:40;;;;;;;12.40;7.03;;;;;;;;;;5023425;28;20510;-58
2023/05/25 10:40:08;;;;;;;13.73;7.65;;;;;;;;;;5024453;28;20423;-57
2023/05/25 10:42:36;;;;;;;11.18;6.57;;;;;;;;;;5024246;28;20490;-58
2023/05/25 10:45:03;;;;;;;11.07;6.68;;;;;;;;;;5023429;28;20420;-59
2023/05/25 10:47:32;;;;;;;13.68;7.32;;;;;;;;;;5022119;28;20475;-58
2023/05/25 10:50:01;;;;;;;14.68;7.20;;;;;;;;;;5021465;28;21101;-62
2023/05/25 10:52:30;;;;;;;13.32;7.35;;;;;;;;;;5020423;28;20876;-62
2023/05/25 10:54:57;;;;;;;14.90;7.50;;;;;;;;;;5023895;28;20422;-56
2023/05/25 10:57:25;;;;;;;11.35;7.10;;;;;;;;;;5022262;28;20470;-57
2023/05/25 10:59:54;;;;;;;12.73;7.25;;;;;;;;;;5023792;28;20415;-59
2023/05/25 11:02:23;;;;;;;12.97;7.33;;;;;;;;;;5028984;28;20628;-57
2023/05/25 11:04:51;;;;;;;13.45;8.10;;;;;;;;;;5019511;28;20416;-59
2023/05/25 11:07:19;;;;;;;12.07;7.32;;;;;;;;;;5022979;28;20455;-59
2023/05/25 11:09:57;;;;;;;13.23;7.75;;;;;;;;;;5013456;28;20463;-58
2023/05/25 11:12:27;;;;;;;13.80;7.72;;;;;;;;;;5017929;28;20452;-59
2023/05/25 11:15:10;;;;;;;13.15;7.30;;;;;;;;;;5019737;28;20415;-57
2023/05/25 11:17:45;;;;;;;13.35;7.32;;;;;;;;;;5019250;28;20455;-58
2023/05/25 11:20:23;;;;;;;15.25;7.70;;;;;;;;;;5021200;28;20450;-58
2023/05/25 11:22:51;;;;;;;16.85;7.70;;;;;;;;;;5026258;28;20985;-58
2023/05/25 11:25:37;;;;;;;11.80;7.50;;;;;;;;;;5024460;28;20491;-59
2023/05/25 11:28:06;;;;;;;12.98;7.13;;;;;;;;;;5012841;28;20416;-58
2023/05/25 11:30:33;;;;;;;11.13;6.88;;;;;;;;;;5003591;28;20448;-59
2023/05/25 11:33:02;;;;;;;11.95;7.25;;;;;;;;;;5031086;28;20480;-57
2023/05/25 11:35:32;;;;;;;13.05;7.75;;;;;;;;;;5024327;28;20424;-58
2023/05/25 11:38:00;;;;;;;13.10;7.50;;;;;;;;;;5020920;28;20435;-59
2023/05/25 11:40:30;;;;;;;14.40;7.78;;;;;;;;;;5015093;28;20526;-58
2023/05/25 11:42:59;;;;;;;10.70;6.95;;;;;;;;;;5030371;28;20423;-58
2023/05/25 11:45:28;;;;;;;11.18;7.15;;;;;;;;;;5029005;28;20512;-59
2023/05/25 11:47:56;;;;;;;11.23;6.80;;;;;;;;;;5021524;28;20467;-58
2023/05/25 11:50:23;;;;;;;15.20;7.55;;;;;;;;;;5021448;28;20466;-58
2023/05/25 11:52:52;;;;;;;11.73;7.35;;;;;;;;;;5022254;28;20418;-59
2023/05/25 11:55:20;;;;;;;13.25;7.00;;;;;;;;;;5020258;28;20425;-60
2023/05/25 11:57:47;;;;;;;15.43;7.80;;;;;;;;;;5022885;28;20538;-56
2023/05/25 12:00:24;;;;;;;14.32;7.93;;;;;;;;;;5017609;28;20419;-59
2023/05/25 12:02:51;;;;;;;12.68;7.90;;;;;;;;;;5016364;28;20608;-59
2023/05/25 12:05:18;;;;;;;16.52;7.78;;;;;;;;;;5026246;28;20426;-58
2023/05/25 12:07:46;;;;;;;10.47;6.50;;;;;;;;;;5015159;28;20428;-57
2023/05/25 12:10:16;;;;;;;13.40;7.63;;;;;;;;;;5017836;28;20465;-58
2023/05/25 12:12:43;;;;;;;13.30;6.97;;;;;;;;;;5022576;28;20460;-57
2023/05/25 12:15:11;;;;;;;13.27;7.38;;;;;;;;;;5021291;28;20761;-59
2023/05/25 12:17:41;;;;;;;16.13;7.90;;;;;;;;;;5019490;28;20577;-62
2023/05/25 12:20:09;;;;;;;12.80;7.13;;;;;;;;;;5021205;28;20490;-62
2023/05/25 12:22:37;;;;;;;11.60;7.03;;;;;;;;;;5023295;28;20610;-58
2023/05/25 12:25:05;;;;;;;12.50;6.90;;;;;;;;;;5021708;28;20469;-58
2023/05/25 12:27:34;;;;;;;11.05;6.78;;;;;;;;;;5020545;28;20868;-58
2023/05/25 12:30:01;;;;;;;12.70;6.85;;;;;;;;;;5021466;28;20477;-59
2023/05/25 12:32:28;;;;;;;13.82;6.40;;;;;;;;;;5022769;28;20421;-59
2023/05/25 12:35:02;;;;;;;11.85;6.97;;;;;;;;;;5019452;28;20427;-60
2023/05/25 12:37:29;;;;;;;12.93;6.88;;;;;;;;;;5020948;28;20489;-60
2023/05/25 12:39:56;;;;;;;12.63;6.47;;;;;;;;;;5022440;28;20923;-59
2023/05/25 12:42:25;;;;;;;13.27;6.40;;;;;;;;;;5022317;28;20784;-61
2023/05/25 12:44:56;;;;;;;11.73;6.68;;;;;;;;;;5022528;28;20893;-62
2023/05/25 12:47:23;;;;;;;14.30;6.43;;;;;;;;;;5022526;28;20464;-61
2023/05/25 12:49:51;;;;;;;9.00;6.20;;;;;;;;;;5016458;28;20486;-59
2023/05/25 12:52:35;;;;;;;11.38;6.43;;;;;;;;;;5021997;28;20474;-61
2023/05/25 12:55:17;;;;;;;11.30;6.15;;;;;;;;;;5020276;28;20470;-62
2023/05/25 12:57:45;;;;;;;9.57;5.65;;;;;;;;;;5019442;28;20480;-66
2023/05/25 13:00:14;;;;;;;11.55;6.65;;;;;;;;;;5019341;28;20478;-62
2023/05/25 13:02:42;;;;;;;11.35;6.47;;;;;;;;;;5020316;28;20911;-58
2023/05/25 13:05:17;;;;;;;10.48;7.07;;;;;;;;;;5017815;28;20882;-58
2023/05/25 13:07:44;;;;;;;11.07;6.53;;;;;;;;;;5013914;28;20535;-58
2023/05/25 13:10:12;;;;;;;12.48;6.75;;;;;;;;;;5022060;28;20426;-57
2023/05/25 13:12:40;;;;;;;12.65;6.28;;;;;;;;;;5014522;28;20477;-56
2023/05/25 13:15:07;;;;;;;12.90;6.43;;;;;;;;;;5021804;28;20421;-57
2023/05/25 13:17:36;;;;;;;11.68;6.07;;;;;;;;;;5020234;28;20486;-58
2023/05/25 13:20:03;;;;;;;16.90;6.60;;;;;;;;;;5018937;28;20462;-59
2023/05/25 13:22:31;;;;;;;9.63;5.95;;;;;;;;;;5014122;28;20424;-58
2023/05/25 13:24:58;;;;;;;11.85;6.00;;;;;;;;;;5017692;28;20457;-59
2023/05/25 13:27:25;;;;;;;12.13;5.97;;;;;;;;;;5006042;28;73417;-59
2023/05/25 13:29:52;;;;;;;11.65;6.20;;;;;;;;;;5025262;28;20415;-59
2023/05/25 13:32:19;;;;;;;11.50;6.10;;;;;;;;;;5024152;28;20478;-60
2023/05/25 13:34:50;;;;;;;10.95;6.35;;;;;;;;;;5026399;28;20575;-60
2023/05/25 13:37:17;;;;;;;11.70;6.20;;;;;;;;;;5026397;28;20439;-60
2023/05/25 13:39:44;;;;;;;9.77;5.93;;;;;;;;;;5029823;28;20433;-59
2023/05/25 13:42:11;;;;;;;9.48;5.53;;;;;;;;;;5024038;28;20431;-60
2023/05/25 13:44:38;;;;;;;10.07;5.77;;;;;;;;;;5031929;28;20537;-59
2023/05/25 13:47:05;;;;;;;12.13;5.82;;;;;;;;;;5022674;28;20479;-60
2023/05/25 13:49:32;;;;;;;12.10;6.00;;;;;;;;;;5018871;28;20416;-60
2023/05/25 13:52:01;;;;;;;12.10;6.13;;;;;;;;;;5021809;28;20484;-60
2023/05/25 13:54:28;;;;;;;12.00;6.10;;;;;;;;;;5021594;28;20418;-60
2023/05/25 13:56:55;;;;;;;12.80;6.55;;;;;;;;;;5021747;28;20978;-60
2023/05/25 13:59:22;;;;;;;12.00;6.37;;;;;;;;;;5022165;28;20867;-60
2023/05/25 14:01:49;;;;;;;9.65;5.95;;;;;;;;;;5021971;28;20899;-60
2023/05/25 14:04:16;;;;;;;9.18;5.47;;;;;;;;;;5021004;28;20419;-59
2023/05/25 14:06:43;;;;;;;12.07;6.10;;;;;;;;;;5025602;28;20496;-60
2023/05/25 14:09:12;;;;;;;9.45;6.10;;;;;;;;;;5022000;28;20469;-59
2023/05/25 14:11:39;;;;;;;11.43;6.70;;;;;;;;;;5024995;28;20977;-59
2023/05/25 14:14:07;;;;;;;10.18;6.97;;;;;;;;;;5026234;28;20425;-60
2023/05/25 14:16:34;;;;;;;9.93;7.03;;;;;;;;;;5022979;28;20425;-59
2023/05/25 14:19:01;;;;;;;11.40;7.80;;;;;;;;;;5019166;28;20424;-60
2023/05/25 14:21:29;;;;;;;10.30;8.25;;;;;;;;;;5020376;28;20945;-59
2023/05/25 14:23:56;;;;;;;12.52;7.32;;;;;;;;;;5021545;28;20445;-60
2023/05/25 14:26:25;;;;;;;11.73;7.63;;;;;;;;;;5019326;28;20824;-60
2023/05/25 14:28:52;;;;;;;11.70;7.22;;;;;;;;;;5024470;28;20429;-60